sensor_id;sensor_type;location;lat;lon;timestamp;pressure;altitude;pressure_sealevel;temperature;humidity
9261;BME280;4667;42.726;23.252;2023-02-21T00:02:29;95632.75;;;4.78;nan
9261;BME280;4667;42.726;23.252;2023-02-21T00:05:13;95633.88;;;4.77;nan
9261;BME280;4667;42.726;23.252;2023-02-21T00:07:58;95635.66;;;4.73;nan
9261;BME280;4667;42.726;23.252;2023-02-21T00:10:42;95630.88;;;4.67;nan
9261;BME280;4667;42.726;23.252;2023-02-21T00:13:26;95632.56;;;4.47;nan
9261;BME280;4667;42.726;23.252;2023-02-21T00:16:14;95627.78;;;4.53;nan
9261;BME280;4667;42.726;23.252;2023-02-21T00:18:58;95625.78;;;4.49;nan
9261;BME280;4667;42.726;23.252;2023-02-21T00:21:42;95625.22;;;4.44;nan
9261;BME280;4667;42.726;23.252;2023-02-21T00:24:27;95620.97;;;4.31;nan
9261;BME280;4667;42.726;23.252;2023-02-21T00:27:12;95619.88;;;3.95;nan
9261;BME280;4667;42.726;23.252;2023-02-21T00:29:55;95613.19;;;4.14;nan
9261;BME280;4667;42.726;23.252;2023-02-21T00:32:40;95617.88;;;4.17;nan
9261;BME280;4667;42.726;23.252;2023-02-21T00:35:28;95609.16;;;3.95;nan
9261;BME280;4667;42.726;23.252;2023-02-21T00:38:12;95614.53;;;4.07;nan
9261;BME280;4667;42.726;23.252;2023-02-21T00:40:58;95605.13;;;4.26;nan
9261;BME280;4667;42.726;23.252;2023-02-21T00:43:42;95608.69;;;4.30;nan
9261;BME280;4667;42.726;23.252;2023-02-21T00:46:26;95603.13;;;4.23;nan
9261;BME280;4667;42.726;23.252;2023-02-21T00:49:11;95598.66;;;4.27;nan
9261;BME280;4667;42.726;23.252;2023-02-21T00:51:55;95592.59;;;4.42;nan
9261;BME280;4667;42.726;23.252;2023-02-21T00:54:39;95588.47;;;4.44;nan
9261;BME280;4667;42.726;23.252;2023-02-21T00:57:29;95586.75;;;4.64;nan
9261;BME280;4667;42.726;23.252;2023-02-21T01:00:17;95576.84;;;4.53;nan
9261;BME280;4667;42.726;23.252;2023-02-21T01:03:02;95567.59;;;4.66;nan
9261;BME280;4667;42.726;23.252;2023-02-21T01:05:46;95560.78;;;4.68;nan
9261;BME280;4667;42.726;23.252;2023-02-21T01:08:31;95549.84;;;4.61;nan
9261;BME280;4667;42.726;23.252;2023-02-21T01:11:16;95547.22;;;4.77;nan
9261;BME280;4667;42.726;23.252;2023-02-21T01:14:01;95547.81;;;4.70;nan
9261;BME280;4667;42.726;23.252;2023-02-21T01:16:46;95543.13;;;4.67;nan
9261;BME280;4667;42.726;23.252;2023-02-21T01:19:30;95543.31;;;4.74;nan
9261;BME280;4667;42.726;23.252;2023-02-21T01:22:14;95542.47;;;4.70;nan
9261;BME280;4667;42.726;23.252;2023-02-21T01:24:58;95553.91;;;4.83;nan
9261;BME280;4667;42.726;23.252;2023-02-21T01:27:43;95538.94;;;4.82;nan
9261;BME280;4667;42.726;23.252;2023-02-21T01:30:28;95543.72;;;4.88;nan
9261;BME280;4667;42.726;23.252;2023-02-21T01:33:12;95537.88;;;4.99;nan
9261;BME280;4667;42.726;23.252;2023-02-21T01:35:56;95530.84;;;4.94;nan
9261;BME280;4667;42.726;23.252;2023-02-21T01:38:40;95534.06;;;5.00;nan
9261;BME280;4667;42.726;23.252;2023-02-21T01:41:24;95528.84;;;5.07;nan
9261;BME280;4667;42.726;23.252;2023-02-21T01:44:28;95530.16;;;4.97;nan
9261;BME280;4667;42.726;23.252;2023-02-21T01:47:14;95522.97;;;5.01;nan
9261;BME280;4667;42.726;23.252;2023-02-21T01:49:58;95522.97;;;4.73;nan
9261;BME280;4667;42.726;23.252;2023-02-21T01:52:44;95515.22;;;4.56;nan
9261;BME280;4667;42.726;23.252;2023-02-21T01:55:30;95508.06;;;4.88;nan
9261;BME280;4667;42.726;23.252;2023-02-21T01:58:15;95516.22;;;4.64;nan
9261;BME280;4667;42.726;23.252;2023-02-21T02:01:00;95513.13;;;4.49;nan
9261;BME280;4667;42.726;23.252;2023-02-21T02:03:45;95504.69;;;4.63;nan
9261;BME280;4667;42.726;23.252;2023-02-21T02:06:30;95506.94;;;4.61;nan
9261;BME280;4667;42.726;23.252;2023-02-21T02:09:15;95497.28;;;4.72;nan
9261;BME280;4667;42.726;23.252;2023-02-21T02:12:11;95486.97;;;4.74;nan
9261;BME280;4667;42.726;23.252;2023-02-21T02:14:58;95495.59;;;4.96;nan
9261;BME280;4667;42.726;23.252;2023-02-21T02:17:38;95478.81;;;4.71;nan
9261;BME280;4667;42.726;23.252;2023-02-21T02:20:46;95493.84;;;4.87;nan
9261;BME280;4667;42.726;23.252;2023-02-21T02:26:49;95487.72;;;4.87;nan
9261;BME280;4667;42.726;23.252;2023-02-21T02:29:43;95484.44;;;5.09;nan
9261;BME280;4667;42.726;23.252;2023-02-21T02:32:36;95477.50;;;5.08;nan
9261;BME280;4667;42.726;23.252;2023-02-21T02:35:08;95482.88;;;5.08;nan
9261;BME280;4667;42.726;23.252;2023-02-21T02:37:40;95490.66;;;5.13;nan
9261;BME280;4667;42.726;23.252;2023-02-21T02:40:18;95482.13;;;5.23;nan
9261;BME280;4667;42.726;23.252;2023-02-21T02:42:59;95478.66;;;5.23;nan
9261;BME280;4667;42.726;23.252;2023-02-21T02:45:32;95475.28;;;5.42;nan
9261;BME280;4667;42.726;23.252;2023-02-21T02:48:05;95482.19;;;5.43;nan
9261;BME280;4667;42.726;23.252;2023-02-21T02:50:37;95488.00;;;5.45;nan
9261;BME280;4667;42.726;23.252;2023-02-21T02:53:04;95486.69;;;5.54;nan
9261;BME280;4667;42.726;23.252;2023-02-21T02:55:36;95479.19;;;5.60;nan
9261;BME280;4667;42.726;23.252;2023-02-21T02:58:05;95477.13;;;5.72;nan
9261;BME280;4667;42.726;23.252;2023-02-21T03:00:34;95479.06;;;5.72;nan
9261;BME280;4667;42.726;23.252;2023-02-21T03:03:28;95480.72;;;5.77;nan
9261;BME280;4667;42.726;23.252;2023-02-21T03:06:18;95474.22;;;5.78;nan
9261;BME280;4667;42.726;23.252;2023-02-21T03:08:52;95469.09;;;5.88;nan
9261;BME280;4667;42.726;23.252;2023-02-21T03:11:24;95470.75;;;5.77;nan
9261;BME280;4667;42.726;23.252;2023-02-21T03:13:56;95480.88;;;5.84;nan
9261;BME280;4667;42.726;23.252;2023-02-21T03:16:30;95470.22;;;5.87;nan
9261;BME280;4667;42.726;23.252;2023-02-21T03:19:01;95460.16;;;5.68;nan
9261;BME280;4667;42.726;23.252;2023-02-21T03:25:08;95456.19;;;5.62;nan
9261;BME280;4667;42.726;23.252;2023-02-21T03:27:38;95453.16;;;5.64;nan
9261;BME280;4667;42.726;23.252;2023-02-21T03:30:32;95455.50;;;5.65;nan
9261;BME280;4667;42.726;23.252;2023-02-21T03:33:02;95443.53;;;5.63;nan
9261;BME280;4667;42.726;23.252;2023-02-21T03:35:30;95445.28;;;5.55;nan
9261;BME280;4667;42.726;23.252;2023-02-21T03:38:06;95453.84;;;5.61;nan
9261;BME280;4667;42.726;23.252;2023-02-21T03:40:42;95452.03;;;5.49;nan
9261;BME280;4667;42.726;23.252;2023-02-21T03:43:23;95452.22;;;5.25;nan
9261;BME280;4667;42.726;23.252;2023-02-21T03:45:49;95460.72;;;5.11;nan
9261;BME280;4667;42.726;23.252;2023-02-21T03:48:16;95464.25;;;5.31;nan
9261;BME280;4667;42.726;23.252;2023-02-21T03:50:43;95475.97;;;5.23;nan
9261;BME280;4667;42.726;23.252;2023-02-21T03:53:11;95475.00;;;5.15;nan
9261;BME280;4667;42.726;23.252;2023-02-21T03:55:38;95473.00;;;4.97;nan
9261;BME280;4667;42.726;23.252;2023-02-21T03:58:05;95472.16;;;4.65;nan
9261;BME280;4667;42.726;23.252;2023-02-21T04:00:31;95472.06;;;4.61;nan
9261;BME280;4667;42.726;23.252;2023-02-21T04:02:58;95475.31;;;4.55;nan
9261;BME280;4667;42.726;23.252;2023-02-21T04:05:25;95474.41;;;4.63;nan
9261;BME280;4667;42.726;23.252;2023-02-21T04:07:52;95467.41;;;4.58;nan
9261;BME280;4667;42.726;23.252;2023-02-21T04:10:20;95475.25;;;4.51;nan
9261;BME280;4667;42.726;23.252;2023-02-21T04:12:47;95471.06;;;4.26;nan
9261;BME280;4667;42.726;23.252;2023-02-21T04:15:14;95473.75;;;4.53;nan
9261;BME280;4667;42.726;23.252;2023-02-21T04:17:41;95477.81;;;4.47;nan
9261;BME280;4667;42.726;23.252;2023-02-21T04:20:08;95492.69;;;4.45;nan
9261;BME280;4667;42.726;23.252;2023-02-21T04:22:35;95490.38;;;4.31;nan
9261;BME280;4667;42.726;23.252;2023-02-21T04:25:02;95495.78;;;4.47;nan
9261;BME280;4667;42.726;23.252;2023-02-21T04:27:30;95496.94;;;4.46;nan
9261;BME280;4667;42.726;23.252;2023-02-21T04:29:59;95503.22;;;4.38;nan
9261;BME280;4667;42.726;23.252;2023-02-21T04:32:26;95505.00;;;4.46;nan
9261;BME280;4667;42.726;23.252;2023-02-21T04:34:54;95507.00;;;4.37;nan
9261;BME280;4667;42.726;23.252;2023-02-21T04:37:20;95505.44;;;4.36;nan
9261;BME280;4667;42.726;23.252;2023-02-21T04:39:47;95513.78;;;4.06;nan
9261;BME280;4667;42.726;23.252;2023-02-21T04:42:14;95515.75;;;4.34;nan
9261;BME280;4667;42.726;23.252;2023-02-21T04:44:43;95511.13;;;4.46;nan
9261;BME280;4667;42.726;23.252;2023-02-21T04:47:09;95513.56;;;4.51;nan
9261;BME280;4667;42.726;23.252;2023-02-21T04:49:36;95513.53;;;4.64;nan
9261;BME280;4667;42.726;23.252;2023-02-21T04:52:05;95503.81;;;4.59;nan
9261;BME280;4667;42.726;23.252;2023-02-21T04:54:32;95510.00;;;4.75;nan
9261;BME280;4667;42.726;23.252;2023-02-21T04:56:59;95496.69;;;4.51;nan
9261;BME280;4667;42.726;23.252;2023-02-21T04:59:26;95483.63;;;4.49;nan
9261;BME280;4667;42.726;23.252;2023-02-21T05:01:54;95482.25;;;4.56;nan
9261;BME280;4667;42.726;23.252;2023-02-21T05:04:21;95467.59;;;4.81;nan
9261;BME280;4667;42.726;23.252;2023-02-21T05:06:47;95484.03;;;4.79;nan
9261;BME280;4667;42.726;23.252;2023-02-21T05:09:14;95465.44;;;4.86;nan
9261;BME280;4667;42.726;23.252;2023-02-21T05:11:42;95472.47;;;4.91;nan
9261;BME280;4667;42.726;23.252;2023-02-21T05:14:09;95473.34;;;4.95;nan
9261;BME280;4667;42.726;23.252;2023-02-21T05:16:36;95462.19;;;5.09;nan
9261;BME280;4667;42.726;23.252;2023-02-21T05:19:05;95460.81;;;5.15;nan
9261;BME280;4667;42.726;23.252;2023-02-21T05:21:33;95462.53;;;5.23;nan
9261;BME280;4667;42.726;23.252;2023-02-21T05:24:02;95450.25;;;5.22;nan
9261;BME280;4667;42.726;23.252;2023-02-21T05:26:33;95456.66;;;5.33;nan
9261;BME280;4667;42.726;23.252;2023-02-21T05:29:04;95457.94;;;5.39;nan
9261;BME280;4667;42.726;23.252;2023-02-21T05:31:31;95457.59;;;5.25;nan
9261;BME280;4667;42.726;23.252;2023-02-21T05:33:58;95457.50;;;5.37;nan
9261;BME280;4667;42.726;23.252;2023-02-21T05:36:26;95458.28;;;5.22;nan
9261;BME280;4667;42.726;23.252;2023-02-21T05:38:54;95462.09;;;5.21;nan
9261;BME280;4667;42.726;23.252;2023-02-21T05:41:22;95463.88;;;4.85;nan
9261;BME280;4667;42.726;23.252;2023-02-21T05:43:49;95469.78;;;5.07;nan
9261;BME280;4667;42.726;23.252;2023-02-21T05:46:23;95478.63;;;4.91;nan
9261;BME280;4667;42.726;23.252;2023-02-21T05:48:51;95469.88;;;4.94;nan
9261;BME280;4667;42.726;23.252;2023-02-21T05:51:19;95480.38;;;5.00;nan
9261;BME280;4667;42.726;23.252;2023-02-21T05:53:48;95478.88;;;5.02;nan
9261;BME280;4667;42.726;23.252;2023-02-21T05:56:16;95490.25;;;5.11;nan
9261;BME280;4667;42.726;23.252;2023-02-21T05:58:43;95492.41;;;5.06;nan
9261;BME280;4667;42.726;23.252;2023-02-21T06:01:10;95502.91;;;5.11;nan
9261;BME280;4667;42.726;23.252;2023-02-21T06:03:37;95507.66;;;5.17;nan
9261;BME280;4667;42.726;23.252;2023-02-21T06:06:05;95508.47;;;5.18;nan
9261;BME280;4667;42.726;23.252;2023-02-21T06:08:42;95507.84;;;5.40;nan
9261;BME280;4667;42.726;23.252;2023-02-21T06:11:10;95495.22;;;5.41;nan
9261;BME280;4667;42.726;23.252;2023-02-21T06:13:37;95506.22;;;5.51;nan
9261;BME280;4667;42.726;23.252;2023-02-21T06:16:23;95502.47;;;5.56;nan
9261;BME280;4667;42.726;23.252;2023-02-21T06:19:05;95499.69;;;5.68;nan
9261;BME280;4667;42.726;23.252;2023-02-21T06:21:33;95493.88;;;5.82;nan
9261;BME280;4667;42.726;23.252;2023-02-21T06:24:01;95498.97;;;6.02;nan
9261;BME280;4667;42.726;23.252;2023-02-21T06:26:32;95507.13;;;6.06;nan
9261;BME280;4667;42.726;23.252;2023-02-21T06:29:00;95505.41;;;6.33;nan
9261;BME280;4667;42.726;23.252;2023-02-21T06:31:27;95494.16;;;6.46;nan
9261;BME280;4667;42.726;23.252;2023-02-21T06:33:54;95501.03;;;6.63;nan
9261;BME280;4667;42.726;23.252;2023-02-21T06:36:23;95506.84;;;6.84;nan
9261;BME280;4667;42.726;23.252;2023-02-21T06:38:52;95507.59;;;7.04;nan
9261;BME280;4667;42.726;23.252;2023-02-21T06:41:23;95503.72;;;7.24;nan
9261;BME280;4667;42.726;23.252;2023-02-21T06:43:52;95500.22;;;7.43;nan
9261;BME280;4667;42.726;23.252;2023-02-21T06:46:20;95504.69;;;7.58;nan
9261;BME280;4667;42.726;23.252;2023-02-21T06:48:48;95501.56;;;7.79;nan
9261;BME280;4667;42.726;23.252;2023-02-21T06:51:15;95492.03;;;7.85;nan
9261;BME280;4667;42.726;23.252;2023-02-21T06:53:43;95500.41;;;8.06;nan
9261;BME280;4667;42.726;23.252;2023-02-21T06:56:12;95505.59;;;8.18;nan
9261;BME280;4667;42.726;23.252;2023-02-21T06:58:39;95498.41;;;8.26;nan
9261;BME280;4667;42.726;23.252;2023-02-21T07:01:07;95495.81;;;8.33;nan
9261;BME280;4667;42.726;23.252;2023-02-21T07:03:38;95504.09;;;8.47;nan
9261;BME280;4667;42.726;23.252;2023-02-21T07:06:06;95502.69;;;8.57;nan
9261;BME280;4667;42.726;23.252;2023-02-21T07:08:34;95499.75;;;8.69;nan
9261;BME280;4667;42.726;23.252;2023-02-21T07:11:03;95498.88;;;8.95;nan
9261;BME280;4667;42.726;23.252;2023-02-21T07:13:31;95502.41;;;8.99;nan
9261;BME280;4667;42.726;23.252;2023-02-21T07:16:01;95508.28;;;9.05;nan
9261;BME280;4667;42.726;23.252;2023-02-21T07:18:29;95506.03;;;9.14;nan
9261;BME280;4667;42.726;23.252;2023-02-21T07:20:57;95500.34;;;9.22;nan
9261;BME280;4667;42.726;23.252;2023-02-21T07:23:24;95498.97;;;9.39;nan
9261;BME280;4667;42.726;23.252;2023-02-21T07:25:51;95496.72;;;9.48;nan
9261;BME280;4667;42.726;23.252;2023-02-21T07:28:17;95490.22;;;9.56;nan
9261;BME280;4667;42.726;23.252;2023-02-21T07:30:44;95485.97;;;9.55;nan
9261;BME280;4667;42.726;23.252;2023-02-21T07:33:12;95482.75;;;9.87;nan
9261;BME280;4667;42.726;23.252;2023-02-21T07:35:40;95483.19;;;9.96;nan
9261;BME280;4667;42.726;23.252;2023-02-21T07:38:07;95469.34;;;10.08;nan
9261;BME280;4667;42.726;23.252;2023-02-21T07:40:34;95471.28;;;10.07;nan
9261;BME280;4667;42.726;23.252;2023-02-21T07:43:00;95468.72;;;10.25;nan
9261;BME280;4667;42.726;23.252;2023-02-21T07:45:28;95474.34;;;10.68;nan
9261;BME280;4667;42.726;23.252;2023-02-21T07:47:55;95457.84;;;11.15;nan
9261;BME280;4667;42.726;23.252;2023-02-21T07:50:22;95455.97;;;11.55;nan
9261;BME280;4667;42.726;23.252;2023-02-21T07:52:51;95449.00;;;11.96;nan
9261;BME280;4667;42.726;23.252;2023-02-21T07:55:18;95452.06;;;12.26;nan
9261;BME280;4667;42.726;23.252;2023-02-21T07:57:46;95447.81;;;12.08;nan
9261;BME280;4667;42.726;23.252;2023-02-21T08:00:13;95442.66;;;12.52;nan
9261;BME280;4667;42.726;23.252;2023-02-21T08:02:40;95442.84;;;12.93;nan
9261;BME280;4667;42.726;23.252;2023-02-21T08:05:14;95433.81;;;13.21;nan
9261;BME280;4667;42.726;23.252;2023-02-21T08:07:44;95431.38;;;13.37;nan
9261;BME280;4667;42.726;23.252;2023-02-21T08:10:20;95438.69;;;14.33;nan
9261;BME280;4667;42.726;23.252;2023-02-21T08:12:48;95432.03;;;15.05;nan
9261;BME280;4667;42.726;23.252;2023-02-21T08:15:15;95438.59;;;15.65;nan
9261;BME280;4667;42.726;23.252;2023-02-21T08:17:42;95422.72;;;16.03;nan
9261;BME280;4667;42.726;23.252;2023-02-21T08:20:10;95429.22;;;16.56;nan
9261;BME280;4667;42.726;23.252;2023-02-21T08:22:40;95432.06;;;17.08;nan
9261;BME280;4667;42.726;23.252;2023-02-21T08:25:11;95427.38;;;17.44;nan
9261;BME280;4667;42.726;23.252;2023-02-21T08:27:43;95416.88;;;18.36;nan
9261;BME280;4667;42.726;23.252;2023-02-21T08:30:13;95419.06;;;18.87;nan
9261;BME280;4667;42.726;23.252;2023-02-21T08:32:40;95415.06;;;19.16;nan
9261;BME280;4667;42.726;23.252;2023-02-21T08:35:12;95408.72;;;19.58;nan
9261;BME280;4667;42.726;23.252;2023-02-21T08:37:42;95413.25;;;20.11;nan
9261;BME280;4667;42.726;23.252;2023-02-21T08:40:10;95405.50;;;20.31;nan
9261;BME280;4667;42.726;23.252;2023-02-21T08:42:37;95401.44;;;20.23;nan
9261;BME280;4667;42.726;23.252;2023-02-21T08:45:05;95402.81;;;20.06;nan
9261;BME280;4667;42.726;23.252;2023-02-21T08:47:35;95408.28;;;20.19;nan
9261;BME280;4667;42.726;23.252;2023-02-21T08:50:02;95413.53;;;19.79;nan
9261;BME280;4667;42.726;23.252;2023-02-21T08:52:29;95404.84;;;19.68;nan
9261;BME280;4667;42.726;23.252;2023-02-21T08:54:55;95394.69;;;18.89;nan
9261;BME280;4667;42.726;23.252;2023-02-21T08:57:22;95401.00;;;18.15;nan
9261;BME280;4667;42.726;23.252;2023-02-21T08:59:49;95399.47;;;17.49;nan
9261;BME280;4667;42.726;23.252;2023-02-21T09:02:18;95398.72;;;17.13;nan
9261;BME280;4667;42.726;23.252;2023-02-21T09:04:46;95395.63;;;16.75;nan
9261;BME280;4667;42.726;23.252;2023-02-21T09:07:14;95397.78;;;16.84;nan
9261;BME280;4667;42.726;23.252;2023-02-21T09:09:43;95395.88;;;16.81;nan
9261;BME280;4667;42.726;23.252;2023-02-21T09:12:10;95396.53;;;17.40;nan
9261;BME280;4667;42.726;23.252;2023-02-21T09:14:38;95391.16;;;17.37;nan
9261;BME280;4667;42.726;23.252;2023-02-21T09:17:09;95393.81;;;17.89;nan
9261;BME280;4667;42.726;23.252;2023-02-21T09:19:38;95380.00;;;18.09;nan
9261;BME280;4667;42.726;23.252;2023-02-21T09:22:06;95385.59;;;18.05;nan
9261;BME280;4667;42.726;23.252;2023-02-21T09:24:34;95378.28;;;18.15;nan
9261;BME280;4667;42.726;23.252;2023-02-21T09:27:02;95368.69;;;18.35;nan
9261;BME280;4667;42.726;23.252;2023-02-21T09:29:30;95375.53;;;18.72;nan
9261;BME280;4667;42.726;23.252;2023-02-21T09:31:59;95365.47;;;18.95;nan
9261;BME280;4667;42.726;23.252;2023-02-21T09:34:26;95367.59;;;19.03;nan
9261;BME280;4667;42.726;23.252;2023-02-21T09:36:54;95361.66;;;19.43;nan
9261;BME280;4667;42.726;23.252;2023-02-21T09:39:22;95358.53;;;19.79;nan
9261;BME280;4667;42.726;23.252;2023-02-21T09:41:52;95348.63;;;19.94;nan
9261;BME280;4667;42.726;23.252;2023-02-21T09:44:23;95350.94;;;20.52;nan
9261;BME280;4667;42.726;23.252;2023-02-21T09:46:54;95355.81;;;21.22;nan
9261;BME280;4667;42.726;23.252;2023-02-21T09:49:24;95345.03;;;21.95;nan
9261;BME280;4667;42.726;23.252;2023-02-21T09:51:54;95342.09;;;22.53;nan
9261;BME280;4667;42.726;23.252;2023-02-21T09:54:25;95343.03;;;22.68;nan
9261;BME280;4667;42.726;23.252;2023-02-21T09:56:55;95329.22;;;22.59;nan
9261;BME280;4667;42.726;23.252;2023-02-21T09:59:23;95341.25;;;23.16;nan
9261;BME280;4667;42.726;23.252;2023-02-21T10:02:00;95345.19;;;23.25;nan
9261;BME280;4667;42.726;23.252;2023-02-21T10:04:42;95332.09;;;23.76;nan
9261;BME280;4667;42.726;23.252;2023-02-21T10:07:17;95328.44;;;23.70;nan
9261;BME280;4667;42.726;23.252;2023-02-21T10:09:52;95325.88;;;23.57;nan
9261;BME280;4667;42.726;23.252;2023-02-21T10:12:25;95325.78;;;23.76;nan
9261;BME280;4667;42.726;23.252;2023-02-21T10:15:14;95323.66;;;23.71;nan
9261;BME280;4667;42.726;23.252;2023-02-21T10:18:01;95317.69;;;24.11;nan
9261;BME280;4667;42.726;23.252;2023-02-21T10:20:32;95306.34;;;24.62;nan
9261;BME280;4667;42.726;23.252;2023-02-21T10:23:11;95310.91;;;24.89;nan
9261;BME280;4667;42.726;23.252;2023-02-21T10:25:43;95304.94;;;24.81;nan
9261;BME280;4667;42.726;23.252;2023-02-21T10:28:17;95306.63;;;24.11;nan
9261;BME280;4667;42.726;23.252;2023-02-21T10:30:46;95298.91;;;24.68;nan
9261;BME280;4667;42.726;23.252;2023-02-21T10:33:14;95308.97;;;24.27;nan
9261;BME280;4667;42.726;23.252;2023-02-21T10:35:44;95288.19;;;24.46;nan
9261;BME280;4667;42.726;23.252;2023-02-21T10:38:15;95291.28;;;24.48;nan
9261;BME280;4667;42.726;23.252;2023-02-21T10:40:46;95286.19;;;24.47;nan
9261;BME280;4667;42.726;23.252;2023-02-21T10:43:18;95286.41;;;24.87;nan
9261;BME280;4667;42.726;23.252;2023-02-21T10:45:50;95282.59;;;24.85;nan
9261;BME280;4667;42.726;23.252;2023-02-21T10:48:21;95279.09;;;25.69;nan
9261;BME280;4667;42.726;23.252;2023-02-21T10:51:06;95268.63;;;24.79;nan
9261;BME280;4667;42.726;23.252;2023-02-21T10:53:36;95268.19;;;25.30;nan
9261;BME280;4667;42.726;23.252;2023-02-21T10:56:22;95269.84;;;25.22;nan
9261;BME280;4667;42.726;23.252;2023-02-21T10:58:53;95252.84;;;24.85;nan
9261;BME280;4667;42.726;23.252;2023-02-21T11:01:30;95246.25;;;25.47;nan
9261;BME280;4667;42.726;23.252;2023-02-21T11:03:59;95242.97;;;25.83;nan
9261;BME280;4667;42.726;23.252;2023-02-21T11:06:34;95245.19;;;25.79;nan
9261;BME280;4667;42.726;23.252;2023-02-21T11:09:23;95228.84;;;26.27;nan
9261;BME280;4667;42.726;23.252;2023-02-21T11:11:59;95235.19;;;25.87;nan
9261;BME280;4667;42.726;23.252;2023-02-21T11:14:29;95223.00;;;25.24;nan
9261;BME280;4667;42.726;23.252;2023-02-21T11:17:14;95228.53;;;25.59;nan
9261;BME280;4667;42.726;23.252;2023-02-21T11:19:48;95212.97;;;25.47;nan
9261;BME280;4667;42.726;23.252;2023-02-21T11:22:17;95218.03;;;25.69;nan
9261;BME280;4667;42.726;23.252;2023-02-21T11:24:56;95205.69;;;25.90;nan
9261;BME280;4667;42.726;23.252;2023-02-21T11:27:24;95199.47;;;25.75;nan
9261;BME280;4667;42.726;23.252;2023-02-21T11:29:52;95192.75;;;26.07;nan
9261;BME280;4667;42.726;23.252;2023-02-21T11:32:28;95191.38;;;26.74;nan
9261;BME280;4667;42.726;23.252;2023-02-21T11:35:05;95189.13;;;27.10;nan
9261;BME280;4667;42.726;23.252;2023-02-21T11:37:33;95188.91;;;27.13;nan
9261;BME280;4667;42.726;23.252;2023-02-21T11:40:23;95174.66;;;26.37;nan
9261;BME280;4667;42.726;23.252;2023-02-21T11:43:09;95182.47;;;26.96;nan
9261;BME280;4667;42.726;23.252;2023-02-21T11:45:36;95176.41;;;26.98;nan
9261;BME280;4667;42.726;23.252;2023-02-21T11:48:10;95175.50;;;26.80;nan
9261;BME280;4667;42.726;23.252;2023-02-21T11:50:41;95165.38;;;26.77;nan
9261;BME280;4667;42.726;23.252;2023-02-21T11:53:17;95165.72;;;27.76;nan
9261;BME280;4667;42.726;23.252;2023-02-21T11:55:54;95161.69;;;27.88;nan
9261;BME280;4667;42.726;23.252;2023-02-21T11:58:26;95152.16;;;28.17;nan
9261;BME280;4667;42.726;23.252;2023-02-21T12:01:00;95150.22;;;27.64;nan
9261;BME280;4667;42.726;23.252;2023-02-21T12:04:03;95146.00;;;27.85;nan
9261;BME280;4667;42.726;23.252;2023-02-21T12:06:39;95134.63;;;27.94;nan
9261;BME280;4667;42.726;23.252;2023-02-21T12:09:25;95138.09;;;27.72;nan
9261;BME280;4667;42.726;23.252;2023-02-21T12:12:04;95125.00;;;26.88;nan
9261;BME280;4667;42.726;23.252;2023-02-21T12:14:43;95121.88;;;27.11;nan
9261;BME280;4667;42.726;23.252;2023-02-21T12:17:44;95113.63;;;27.28;nan
9261;BME280;4667;42.726;23.252;2023-02-21T12:20:26;95111.06;;;27.25;nan
9261;BME280;4667;42.726;23.252;2023-02-21T12:23:06;95104.78;;;27.35;nan
9261;BME280;4667;42.726;23.252;2023-02-21T12:25:42;95103.91;;;27.07;nan
9261;BME280;4667;42.726;23.252;2023-02-21T12:28:22;95097.66;;;27.23;nan
9261;BME280;4667;42.726;23.252;2023-02-21T12:31:11;95099.75;;;26.23;nan
9261;BME280;4667;42.726;23.252;2023-02-21T12:33:43;95084.88;;;25.69;nan
9261;BME280;4667;42.726;23.252;2023-02-21T12:36:31;95097.50;;;25.95;nan
9261;BME280;4667;42.726;23.252;2023-02-21T12:39:30;95097.78;;;25.97;nan
9261;BME280;4667;42.726;23.252;2023-02-21T12:43:00;95091.75;;;26.05;nan
9261;BME280;4667;42.726;23.252;2023-02-21T12:45:48;95081.94;;;25.11;nan
9261;BME280;4667;42.726;23.252;2023-02-21T12:48:52;95079.53;;;24.49;nan
9261;BME280;4667;42.726;23.252;2023-02-21T12:51:32;95078.91;;;24.39;nan
9261;BME280;4667;42.726;23.252;2023-02-21T12:54:09;95074.84;;;25.10;nan
9261;BME280;4667;42.726;23.252;2023-02-21T12:56:43;95076.03;;;24.69;nan
9261;BME280;4667;42.726;23.252;2023-02-21T13:02:15;95067.91;;;25.61;nan
9261;BME280;4667;42.726;23.252;2023-02-21T13:04:52;95072.97;;;26.20;nan
9261;BME280;4667;42.726;23.252;2023-02-21T13:07:23;95069.25;;;26.60;nan
9261;BME280;4667;42.726;23.252;2023-02-21T13:09:58;95060.91;;;26.60;nan
9261;BME280;4667;42.726;23.252;2023-02-21T13:12:32;95058.66;;;26.64;nan
9261;BME280;4667;42.726;23.252;2023-02-21T13:15:11;95055.03;;;26.52;nan
9261;BME280;4667;42.726;23.252;2023-02-21T13:17:49;95052.53;;;26.54;nan
9261;BME280;4667;42.726;23.252;2023-02-21T13:21:15;95053.88;;;27.12;nan
9261;BME280;4667;42.726;23.252;2023-02-21T13:23:41;95052.22;;;26.83;nan
9261;BME280;4667;42.726;23.252;2023-02-21T13:26:32;95056.69;;;27.23;nan
9261;BME280;4667;42.726;23.252;2023-02-21T13:29:30;95042.78;;;27.18;nan
9261;BME280;4667;42.726;23.252;2023-02-21T13:32:50;95036.34;;;26.90;nan
9261;BME280;4667;42.726;23.252;2023-02-21T13:35:20;95043.00;;;26.61;nan
9261;BME280;4667;42.726;23.252;2023-02-21T13:37:50;95040.38;;;26.89;nan
9261;BME280;4667;42.726;23.252;2023-02-21T13:40:24;95028.38;;;26.66;nan
9261;BME280;4667;42.726;23.252;2023-02-21T13:43:03;95031.63;;;27.07;nan
9261;BME280;4667;42.726;23.252;2023-02-21T13:45:31;95028.16;;;27.29;nan
9261;BME280;4667;42.726;23.252;2023-02-21T13:48:22;95015.34;;;27.53;nan
9261;BME280;4667;42.726;23.252;2023-02-21T13:50:54;95015.34;;;27.59;nan
9261;BME280;4667;42.726;23.252;2023-02-21T13:53:22;95011.06;;;27.52;nan
9261;BME280;4667;42.726;23.252;2023-02-21T13:56:16;95011.84;;;27.75;nan
9261;BME280;4667;42.726;23.252;2023-02-21T13:58:46;95009.56;;;27.74;nan
9261;BME280;4667;42.726;23.252;2023-02-21T14:04:58;95004.25;;;27.70;nan
9261;BME280;4667;42.726;23.252;2023-02-21T14:07:43;95004.38;;;27.22;nan
9261;BME280;4667;42.726;23.252;2023-02-21T14:10:23;95016.41;;;26.97;nan
9261;BME280;4667;42.726;23.252;2023-02-21T14:12:58;95007.44;;;26.76;nan
9261;BME280;4667;42.726;23.252;2023-02-21T14:15:40;95006.63;;;27.18;nan
9261;BME280;4667;42.726;23.252;2023-02-21T14:18:26;95017.22;;;26.60;nan
9261;BME280;4667;42.726;23.252;2023-02-21T14:20:56;95021.66;;;26.10;nan
9261;BME280;4667;42.726;23.252;2023-02-21T14:23:46;95021.56;;;25.98;nan
9261;BME280;4667;42.726;23.252;2023-02-21T14:26:39;95011.78;;;26.40;nan
9261;BME280;4667;42.726;23.252;2023-02-21T14:29:27;95008.97;;;25.97;nan
9261;BME280;4667;42.726;23.252;2023-02-21T14:32:25;95008.78;;;25.29;nan
9261;BME280;4667;42.726;23.252;2023-02-21T14:34:59;94997.88;;;25.00;nan
9261;BME280;4667;42.726;23.252;2023-02-21T14:37:33;95000.13;;;24.96;nan